Time;durP1;ratioP1;P1;durP2;ratioP2;P2;SDS_P1;SDS_P2;PMS_P1;PMS_P2;Temp;Humidity;BMP_temperature;BMP_pressure;BME280_temperature;BME280_humidity;BME280_pressure;Samples;Min_cycle;Max_cycle;Signal;HPM_P1;HPM_P2
2022/10/15 00:00:53;;;;;;;10.40;5.45;;;;;;;12.57;nan;-24167.91;5092248;28;20181;-77
2022/10/15 00:03:18;;;;;;;6.90;4.45;;;;;;;12.54;nan;-24167.22;5092027;28;20172;-78
2022/10/15 00:05:43;;;;;;;6.57;4.57;;;;;;;12.85;nan;-24175.78;5094259;28;20283;-76
2022/10/15 00:08:10;;;;;;;7.57;4.93;;;;;;;11.85;nan;-24147.94;5101346;28;20184;-77
2022/10/15 00:10:36;;;;;;;12.55;5.03;;;;;;;12.94;nan;-24178.31;5100551;28;20291;-77
2022/10/15 00:13:03;;;;;;;7.65;4.85;;;;;;;12.60;nan;-24168.75;5099746;28;20181;-78
2022/10/15 00:15:28;;;;;;;8.18;5.03;;;;;;;12.84;nan;-24175.66;5096197;28;20208;-79
2022/10/15 00:17:54;;;;;;;7.90;4.95;;;;;;;12.51;nan;-24166.38;5086857;28;20275;-79
2022/10/15 00:20:20;;;;;;;9.15;5.20;;;;;;;12.64;nan;-24169.88;5081050;28;20314;-77
2022/10/15 00:22:46;;;;;;;6.53;4.32;;;;;;;9.85;nan;-24092.22;5094511;28;20742;-78
2022/10/15 00:25:11;;;;;;;8.93;4.95;;;;;;;12.43;nan;-24163.97;5082910;28;20331;-79
2022/10/15 00:27:37;;;;;;;8.90;4.80;;;;;;;12.14;nan;-24155.97;5078064;28;20213;-79
2022/10/15 00:30:04;;;;;;;8.18;4.63;;;;;;;12.65;nan;-24170.31;5081232;28;20683;-77
2022/10/15 00:32:32;;;;;;;6.85;4.07;;;;;;;12.85;nan;-24175.78;5092110;28;20669;-76
2022/10/15 00:34:58;;;;;;;7.60;4.80;;;;;;;12.58;nan;-24168.34;5090856;28;20186;-77
2022/10/15 00:37:24;;;;;;;6.63;4.68;;;;;;;12.26;nan;-24159.47;5087869;28;20196;-78
2022/10/15 00:39:49;;;;;;;8.00;4.60;;;;;;;12.63;nan;-24169.59;5094871;28;20659;-80
2022/10/15 00:42:15;;;;;;;7.22;4.28;;;;;;;12.45;nan;-24164.69;5072668;28;20229;-78
2022/10/15 00:44:53;;;;;;;8.15;4.53;;;;;;;12.71;nan;-24171.84;5094122;28;20267;-78
2022/10/15 00:47:37;;;;;;;7.13;4.55;;;;;;;12.89;nan;-24176.78;5078079;28;20199;-77
2022/10/15 00:50:09;;;;;;;6.70;4.38;;;;;;;12.51;nan;-24166.38;5086518;28;20196;-79
2022/10/15 00:52:56;;;;;;;6.28;4.00;;;;;;;12.80;nan;-24174.38;5073159;28;20552;-78
2022/10/15 00:55:33;;;;;;;6.18;4.20;;;;;;;12.74;nan;-24172.84;5091960;28;20199;-78
2022/10/15 00:58:05;;;;;;;6.78;4.60;;;;;;;12.84;nan;-24175.50;5074732;28;20675;-76
2022/10/15 01:00:31;;;;;;;6.68;4.20;;;;;;;12.26;nan;-24159.34;5096897;28;20193;-78
2022/10/15 01:02:56;;;;;;;6.63;4.40;;;;;;;12.67;nan;-24170.72;5079164;28;20220;-78
2022/10/15 01:05:23;;;;;;;7.43;4.22;;;;;;;12.68;nan;-24171.16;5096388;28;20177;-77
2022/10/15 01:07:48;;;;;;;6.20;3.95;;;;;;;12.42;nan;-24163.84;5095162;28;20259;-80
2022/10/15 01:10:15;;;;;;;7.95;4.28;;;;;;;12.58;nan;-24168.19;5088906;28;20698;-78
2022/10/15 01:12:46;;;;;;;10.23;4.22;;;;;;;12.27;nan;-24159.75;5100573;28;20636;-81
2022/10/15 01:15:18;;;;;;;7.22;4.43;;;;;;;12.67;nan;-24170.72;5096023;28;20169;-79
2022/10/15 01:17:49;;;;;;;6.75;4.30;;;;;;;12.55;nan;-24167.34;5076543;28;20200;-78
2022/10/15 01:20:50;;;;;;;6.82;4.32;;;;;;;12.65;nan;-24170.31;5082335;28;20189;-78
2022/10/15 01:23:36;;;;;;;6.05;3.90;;;;;;;12.68;nan;-24171.00;5057857;28;20224;-78
2022/10/15 01:26:30;;;;;;;6.55;4.35;;;;;;;12.72;nan;-24172.13;5103114;28;20234;-81
2022/10/15 01:29:22;;;;;;;6.97;4.28;;;;;;;12.59;nan;-24168.63;5072002;28;20538;-77
2022/10/15 01:32:07;;;;;;;6.78;4.32;;;;;;;12.55;nan;-24167.34;5080226;28;20287;-79
2022/10/15 01:34:32;;;;;;;7.03;4.20;;;;;;;12.54;nan;-24167.22;5090185;28;20186;-79
2022/10/15 01:37:00;;;;;;;7.60;4.60;;;;;;;12.25;nan;-24159.19;5102492;28;20203;-81
2022/10/15 01:39:34;;;;;;;6.85;4.25;;;;;;;12.45;nan;-24164.69;5077248;28;20193;-78
2022/10/15 01:42:04;;;;;;;7.45;4.38;;;;;;;12.38;nan;-24162.84;5077560;28;20281;-77
2022/10/15 01:44:35;;;;;;;6.38;4.00;;;;;;;12.39;nan;-24163.00;5083052;28;20189;-77
2022/10/15 01:47:05;;;;;;;5.63;4.05;;;;;;;12.34;nan;-24161.72;5095673;28;20657;-77
2022/10/15 01:49:36;;;;;;;6.90;4.05;;;;;;;12.44;nan;-24164.41;5092299;28;20240;-80
2022/10/15 01:52:09;;;;;;;8.65;4.10;;;;;;;12.25;nan;-24159.19;5084818;28;20253;-78
2022/10/15 01:54:36;;;;;;;7.25;4.75;;;;;;;12.20;nan;-24157.78;5091947;28;20185;-78
2022/10/15 01:57:04;;;;;;;7.15;4.93;;;;;;;12.10;nan;-24154.97;5095111;28;20345;-78
2022/10/15 01:59:32;;;;;;;7.13;4.18;;;;;;;12.40;nan;-24163.41;5085025;28;20181;-78
2022/10/15 02:01:57;;;;;;;6.53;4.07;;;;;;;12.40;nan;-24163.41;5073037;28;20182;-77
2022/10/15 02:04:26;;;;;;;5.97;4.00;;;;;;;12.47;nan;-24165.09;5082292;28;20659;-79
2022/10/15 02:07:06;;;;;;;6.97;4.25;;;;;;;12.47;nan;-24165.09;5100462;28;20279;-78
2022/10/15 02:09:34;;;;;;;6.68;3.92;;;;;;;12.43;nan;-24163.97;5095013;28;20203;-79
2022/10/15 02:12:03;;;;;;;8.65;4.55;;;;;;;12.55;nan;-24167.34;5093200;28;20181;-77
2022/10/15 02:14:37;;;;;;;6.50;3.97;;;;;;;12.46;nan;-24164.81;5081332;28;20181;-79
2022/10/15 02:17:09;;;;;;;8.75;4.00;;;;;;;12.47;nan;-24165.25;5077891;28;20192;-77
2022/10/15 02:19:49;;;;;;;6.13;3.80;;;;;;;12.46;nan;-24164.81;5076385;28;20178;-79
2022/10/15 02:22:23;;;;;;;8.95;4.28;;;;;;;12.28;nan;-24160.03;5076084;28;20296;-79
2022/10/15 02:24:57;;;;;;;6.35;4.10;;;;;;;12.14;nan;-24156.09;5076219;28;20177;-77
2022/10/15 02:27:25;;;;;;;7.70;4.50;;;;;;;12.40;nan;-24163.41;5094164;28;20177;-77
2022/10/15 02:29:52;;;;;;;7.88;4.60;;;;;;;12.53;nan;-24166.94;5094464;28;20193;-79
2022/10/15 02:32:20;;;;;;;7.53;3.90;;;;;;;12.56;nan;-24167.63;5093142;28;20287;-78
2022/10/15 02:34:48;;;;;;;6.15;3.83;;;;;;;12.46;nan;-24164.97;5092829;28;20184;-78
2022/10/15 02:37:17;;;;;;;5.78;4.03;;;;;;;12.20;nan;-24157.78;5075954;28;20178;-80
2022/10/15 02:39:43;;;;;;;6.32;4.47;;;;;;;12.21;nan;-24158.06;5092676;28;20337;-78
2022/10/15 02:42:08;;;;;;;7.00;4.13;;;;;;;12.45;nan;-24164.69;5092576;28;20189;-79
2022/10/15 02:44:34;;;;;;;7.18;3.92;;;;;;;11.94;nan;-24150.59;5094247;28;20177;-77
2022/10/15 02:46:59;;;;;;;6.03;3.83;;;;;;;12.37;nan;-24162.44;5094195;28;20577;-78
2022/10/15 02:49:25;;;;;;;4.85;3.55;;;;;;;12.46;nan;-24164.97;5093393;28;20205;-77
2022/10/15 02:51:50;;;;;;;5.82;4.13;;;;;;;12.46;nan;-24164.81;5093799;28;20173;-78
2022/10/15 02:54:15;;;;;;;5.63;3.78;;;;;;;12.09;nan;-24154.53;5093713;28;20656;-77
2022/10/15 02:56:41;;;;;;;5.97;3.85;;;;;;;12.46;nan;-24164.81;5094542;28;20197;-77
2022/10/15 02:59:06;;;;;;;6.53;3.97;;;;;;;12.19;nan;-24157.50;5077519;28;20611;-77
2022/10/15 03:01:33;;;;;;;6.75;4.78;;;;;;;12.35;nan;-24161.88;5094222;28;20204;-80
2022/10/15 03:03:58;;;;;;;5.60;4.07;;;;;;;12.06;nan;-24153.84;5076634;28;20279;-79
2022/10/15 03:06:24;;;;;;;8.48;3.95;;;;;;;12.32;nan;-24161.16;5091034;28;20546;-79
2022/10/15 03:08:49;;;;;;;6.40;3.97;;;;;;;12.43;nan;-24164.13;5084151;28;20636;-78
2022/10/15 03:11:15;;;;;;;5.20;4.15;;;;;;;12.35;nan;-24161.88;5075110;28;20216;-78
2022/10/15 03:13:41;;;;;;;6.00;4.03;;;;;;;12.55;nan;-24167.34;5093250;28;20268;-78
2022/10/15 03:16:09;;;;;;;6.80;4.07;;;;;;;12.53;nan;-24166.94;5073531;28;20201;-79
2022/10/15 03:18:35;;;;;;;7.15;4.25;;;;;;;12.51;nan;-24166.22;5082169;28;20184;-78
2022/10/15 03:21:00;;;;;;;6.10;4.30;;;;;;;12.47;nan;-24165.25;5074895;28;20181;-80
2022/10/15 03:23:26;;;;;;;9.43;4.30;;;;;;;12.55;nan;-24167.50;5086592;28;20229;-77
2022/10/15 03:25:53;;;;;;;7.35;3.88;;;;;;;12.53;nan;-24166.94;5081680;28;20181;-78
2022/10/15 03:28:18;;;;;;;6.68;4.05;;;;;;;12.29;nan;-24160.19;5086884;28;20221;-78
2022/10/15 03:30:44;;;;;;;6.95;4.22;;;;;;;9.31;nan;-24077.09;5076915;28;20718;-78
2022/10/15 03:33:10;;;;;;;5.85;3.97;;;;;;;12.43;nan;-24164.13;5066352;28;20196;-80
2022/10/15 03:35:37;;;;;;;8.23;4.40;;;;;;;12.42;nan;-24163.69;5060552;28;20285;-80
2022/10/15 03:38:03;;;;;;;7.15;4.30;;;;;;;12.55;nan;-24167.50;5072128;28;20177;-81
2022/10/15 03:40:30;;;;;;;5.43;4.32;;;;;;;12.60;nan;-24168.75;5070788;28;20186;-79
2022/10/15 03:42:55;;;;;;;6.60;4.13;;;;;;;11.00;nan;-24124.25;5072128;28;20594;-79
2022/10/15 03:45:22;;;;;;;8.70;4.60;;;;;;;12.32;nan;-24161.16;5076907;28;20193;-79
2022/10/15 03:47:47;;;;;;;5.00;3.35;;;;;;;9.91;nan;-24093.78;5060720;28;20177;-80
2022/10/15 03:50:13;;;;;;;8.60;4.60;;;;;;;12.52;nan;-24166.66;5084010;28;20219;-81
2022/10/15 03:52:39;;;;;;;5.78;4.03;;;;;;;;;;5078391;28;20660;-81
2022/10/15 03:55:06;;;;;;;7.88;4.57;;;;;;;12.49;nan;-24165.66;5077589;28;20197;-81
2022/10/15 03:57:31;;;;;;;6.10;3.78;;;;;;;12.33;nan;-24161.31;5088442;28;20186;-81
2022/10/15 03:59:57;;;;;;;8.38;4.47;;;;;;;11.96;nan;-24151.03;5069928;28;20338;-78
2022/10/15 04:02:23;;;;;;;9.35;4.50;;;;;;;12.26;nan;-24159.34;5070309;28;20182;-81
2022/10/15 04:04:52;;;;;;;7.53;4.47;;;;;;;12.47;nan;-24165.25;5087969;28;20241;-78
2022/10/15 04:07:19;;;;;;;5.85;4.13;;;;;;;12.43;nan;-24164.13;5083374;28;20237;-78
2022/10/15 04:09:44;;;;;;;6.32;3.90;;;;;;;12.13;nan;-24155.81;5076135;28;20209;-78
2022/10/15 04:12:10;;;;;;;7.28;4.30;;;;;;;12.56;nan;-24167.63;5078812;28;20191;-79
2022/10/15 04:14:35;;;;;;;5.38;3.50;;;;;;;12.34;nan;-24161.59;5079155;28;20186;-80
2022/10/15 04:17:01;;;;;;;4.78;3.65;;;;;;;12.45;nan;-24164.53;5076696;28;20166;-81
2022/10/15 04:19:26;;;;;;;7.32;4.28;;;;;;;12.32;nan;-24161.16;5091429;28;20219;-78
2022/10/15 04:21:52;;;;;;;4.97;3.92;;;;;;;12.04;nan;-24153.13;5078071;28;20187;-79
2022/10/15 04:24:17;;;;;;;5.93;4.20;;;;;;;12.16;nan;-24156.66;5085808;28;20221;-80
2022/10/15 04:26:43;;;;;;;8.10;4.18;;;;;;;12.27;nan;-24159.75;5071455;28;20644;-81
2022/10/15 04:29:08;;;;;;;6.93;4.40;;;;;;;12.23;nan;-24158.50;5085208;28;20208;-79
2022/10/15 04:31:34;;;;;;;6.15;3.92;;;;;;;12.24;nan;-24158.78;5072028;28;20185;-78
2022/10/15 04:33:59;;;;;;;8.95;4.72;;;;;;;12.25;nan;-24159.06;5081103;28;20189;-77
2022/10/15 04:36:25;;;;;;;6.07;3.90;;;;;;;12.18;nan;-24157.22;5083944;28;20311;-81
2022/10/15 04:38:51;;;;;;;6.30;3.80;;;;;;;12.24;nan;-24158.78;5096668;28;20652;-80
2022/10/15 04:41:17;;;;;;;7.90;4.00;;;;;;;12.22;nan;-24158.34;5085787;28;20178;-81
2022/10/15 04:43:42;;;;;;;6.40;4.15;;;;;;;12.20;nan;-24157.66;5077560;28;20638;-79
2022/10/15 04:46:08;;;;;;;6.90;3.83;;;;;;;12.27;nan;-24159.63;5092523;28;20185;-80
2022/10/15 04:48:35;;;;;;;5.68;4.00;;;;;;;7.76;nan;-24033.78;5087842;28;20266;-77
2022/10/15 04:51:19;;;;;;;5.72;3.72;;;;;;;12.16;nan;-24156.66;5086924;28;20230;-82
2022/10/15 04:53:45;;;;;;;6.40;4.18;;;;;;;12.10;nan;-24154.97;5064016;28;20223;-78
2022/10/15 04:56:14;;;;;;;9.77;4.07;;;;;;;12.25;nan;-24159.19;5081155;28;20213;-81
2022/10/15 04:58:40;;;;;;;7.03;4.60;;;;;;;12.29;nan;-24160.31;5080636;28;20596;-79
2022/10/15 05:01:13;;;;;;;5.85;4.28;;;;;;;12.33;nan;-24161.44;5081099;28;20234;-84
2022/10/15 05:03:43;;;;;;;7.07;4.22;;;;;;;11.45;nan;-24136.81;5080986;28;20165;-78
2022/10/15 05:06:14;;;;;;;7.93;4.18;;;;;;;12.12;nan;-24155.53;5098478;28;20197;-81
2022/10/15 05:08:43;;;;;;;5.25;3.80;;;;;;;12.45;nan;-24164.69;5080144;28;20205;-80
2022/10/15 05:11:15;;;;;;;5.75;3.65;;;;;;;12.43;nan;-24164.13;5097631;28;20227;-78
2022/10/15 05:13:41;;;;;;;5.28;3.72;;;;;;;12.36;nan;-24162.16;5098034;28;20189;-80
2022/10/15 05:16:20;;;;;;;5.57;3.67;;;;;;;12.62;nan;-24169.31;5097944;28;20212;-80
2022/10/15 05:18:48;;;;;;;6.47;4.00;;;;;;;12.61;nan;-24169.03;5102288;28;20310;-84
2022/10/15 05:21:14;;;;;;;5.95;3.85;;;;;;;12.50;nan;-24166.09;5081217;28;20188;-82
2022/10/15 05:23:40;;;;;;;6.05;3.70;;;;;;;12.68;nan;-24171.00;5081256;28;20217;-86
2022/10/15 05:26:10;;;;;;;8.25;3.65;;;;;;;12.68;nan;-24171.16;5081702;28;20188;-81
2022/10/15 05:28:36;;;;;;;7.18;4.03;;;;;;;12.74;nan;-24172.84;5097098;28;20189;-80
2022/10/15 05:31:13;;;;;;;7.40;4.25;;;;;;;12.73;nan;-24172.56;5090723;28;20212;-87
2022/10/15 05:33:39;;;;;;;6.80;4.15;;;;;;;12.63;nan;-24169.75;5094802;28;20196;-85
2022/10/15 05:36:20;;;;;;;5.85;4.10;;;;;;;12.85;nan;-24175.78;5095637;28;20185;-82
2022/10/15 05:38:47;;;;;;;5.55;3.97;;;;;;;13.06;nan;-24181.69;5092488;28;20260;-85
2022/10/15 05:41:13;;;;;;;8.65;4.65;;;;;;;12.92;nan;-24177.75;5082760;28;20199;-83
2022/10/15 05:43:38;;;;;;;7.15;4.40;;;;;;;13.17;nan;-24184.66;5082661;28;20708;-84
2022/10/15 05:46:04;;;;;;;8.02;4.35;;;;;;;12.68;nan;-24171.16;5088981;28;20626;-81
2022/10/15 05:48:29;;;;;;;12.75;5.28;;;;;;;12.93;nan;-24177.91;5081077;28;20181;-82
2022/10/15 05:51:03;;;;;;;8.27;5.22;;;;;;;12.83;nan;-24175.38;5078349;28;20217;-81
2022/10/15 05:53:28;;;;;;;9.52;4.57;;;;;;;13.23;nan;-24186.47;5085905;28;20189;-80
2022/10/15 05:55:54;;;;;;;8.35;4.95;;;;;;;13.22;nan;-24186.06;5102990;28;20188;-85
2022/10/15 05:58:20;;;;;;;8.77;5.35;;;;;;;12.85;nan;-24175.94;5077150;28;20559;-80
2022/10/15 06:00:52;;;;;;;9.40;5.15;;;;;;;13.26;nan;-24187.31;5095883;28;20177;-83
2022/10/15 06:03:18;;;;;;;9.02;4.75;;;;;;;13.33;nan;-24189.16;5094978;28;20188;-78
2022/10/15 06:05:43;;;;;;;7.55;4.53;;;;;;;13.22;nan;-24186.19;5095260;28;20173;-81
2022/10/15 06:08:09;;;;;;;7.13;4.60;;;;;;;13.34;nan;-24189.28;5076394;28;20636;-80
2022/10/15 06:10:36;;;;;;;8.07;4.65;;;;;;;13.32;nan;-24188.72;5094156;28;20304;-81
2022/10/15 06:13:02;;;;;;;7.60;4.63;;;;;;;13.07;nan;-24181.84;5075674;28;20181;-82
2022/10/15 06:15:28;;;;;;;7.32;4.75;;;;;;;10.55;nan;-24111.84;5075557;28;20641;-81
2022/10/15 06:17:53;;;;;;;6.55;4.20;;;;;;;13.61;nan;-24196.88;5072432;28;20190;-81
2022/10/15 06:20:19;;;;;;;5.95;4.47;;;;;;;13.61;nan;-24196.88;5086033;28;20220;-82
2022/10/15 06:22:44;;;;;;;8.05;4.60;;;;;;;13.75;nan;-24200.81;5077613;28;20240;-81
2022/10/15 06:25:10;;;;;;;6.50;4.55;;;;;;;13.78;nan;-24201.63;5097539;28;20719;-82
2022/10/15 06:27:35;;;;;;;9.38;4.63;;;;;;;13.96;nan;-24206.56;5077327;28;20181;-80
2022/10/15 06:30:01;;;;;;;7.80;5.13;;;;;;;13.68;nan;-24198.84;5077320;28;20589;-80
2022/10/15 06:32:27;;;;;;;7.65;4.65;;;;;;;14.10;nan;-24210.50;5095018;28;20170;-79
2022/10/15 06:34:52;;;;;;;6.35;4.57;;;;;;;13.71;nan;-24199.81;5077468;28;20661;-81
2022/10/15 06:37:19;;;;;;;6.00;3.95;;;;;;;13.97;nan;-24206.97;5078610;28;20180;-80
2022/10/15 06:39:45;;;;;;;6.68;3.95;;;;;;;7.13;nan;-24015.94;5097676;28;20201;-80
2022/10/15 06:42:11;;;;;;;7.47;4.50;;;;;;;14.24;nan;-24214.28;5095616;28;20165;-78
2022/10/15 06:44:37;;;;;;;6.97;4.43;;;;;;;14.25;nan;-24214.69;5096447;28;20173;-79
2022/10/15 06:47:03;;;;;;;7.35;4.45;;;;;;;14.50;nan;-24221.56;5095188;28;20182;-81
2022/10/15 06:49:28;;;;;;;8.45;4.20;;;;;;;14.64;nan;-24225.50;5078303;28;20690;-83
2022/10/15 06:51:54;;;;;;;4.97;3.58;;;;;;;14.77;nan;-24229.13;5094154;28;20224;-84
2022/10/15 06:54:19;;;;;;;6.68;3.88;;;;;;;14.64;nan;-24225.50;5094897;28;20279;-80
2022/10/15 06:56:44;;;;;;;5.75;3.50;;;;;;;14.79;nan;-24229.56;5077761;28;20189;-78
2022/10/15 06:59:10;;;;;;;6.72;3.67;;;;;;;14.98;nan;-24235.03;5096265;28;20181;-81
2022/10/15 07:01:35;;;;;;;6.03;4.10;;;;;;;15.31;nan;-24244.13;5095923;28;20185;-79
2022/10/15 07:04:01;;;;;;;6.35;3.97;;;;;;;15.23;nan;-24241.88;5077340;28;20706;-82
2022/10/15 07:06:26;;;;;;;7.18;4.00;;;;;;;15.36;nan;-24245.53;5094913;28;20260;-81
2022/10/15 07:08:52;;;;;;;5.40;3.53;;;;;;;15.31;nan;-24244.00;5076772;28;20534;-83
2022/10/15 07:11:17;;;;;;;7.35;4.05;;;;;;;15.14;nan;-24239.38;5076777;28;20201;-80
2022/10/15 07:13:43;;;;;;;5.95;3.90;;;;;;;14.96;nan;-24234.47;5077029;28;20185;-82
2022/10/15 07:16:10;;;;;;;9.27;4.68;;;;;;;15.23;nan;-24241.75;5076558;28;20648;-80
2022/10/15 07:18:37;;;;;;;5.88;3.67;;;;;;;15.40;nan;-24246.66;5076551;28;20282;-83
2022/10/15 07:21:04;;;;;;;7.43;4.40;;;;;;;15.24;nan;-24242.03;5076022;28;20595;-79
2022/10/15 07:23:30;;;;;;;5.38;3.70;;;;;;;15.63;nan;-24252.81;5075371;28;20286;-79
2022/10/15 07:25:59;;;;;;;6.80;3.83;;;;;;;15.63;nan;-24252.81;5076327;28;20173;-78
2022/10/15 07:28:25;;;;;;;4.93;3.58;;;;;;;15.65;nan;-24253.50;5071424;28;20198;-81
2022/10/15 07:30:51;;;;;;;6.18;3.40;;;;;;;15.55;nan;-24250.72;5081908;28;20328;-73
2022/10/15 07:33:17;;;;;;;4.28;3.20;;;;;;;15.81;nan;-24257.84;5086809;28;20182;-80
2022/10/15 07:35:43;;;;;;;5.32;3.50;;;;;;;15.35;nan;-24245.13;5093911;28;20628;-78
2022/10/15 07:38:08;;;;;;;5.55;3.15;;;;;;;15.62;nan;-24252.53;5076825;28;20280;-80
2022/10/15 07:40:34;;;;;;;4.85;2.97;;;;;;;15.29;nan;-24243.56;5095619;28;20201;-79
2022/10/15 07:42:59;;;;;;;4.80;3.20;;;;;;;15.40;nan;-24246.50;5094999;28;20513;-82
2022/10/15 07:45:26;;;;;;;4.05;2.90;;;;;;;15.54;nan;-24250.44;5076255;28;20273;-69
2022/10/15 07:47:52;;;;;;;8.73;3.30;;;;;;;15.71;nan;-24255.06;5091941;28;20171;-68
2022/10/15 07:50:18;;;;;;;4.85;2.97;;;;;;;15.62;nan;-24252.53;5091378;28;20711;-67
2022/10/15 07:52:44;;;;;;;5.13;3.72;;;;;;;15.76;nan;-24256.47;5091573;28;20185;-66
2022/10/15 07:55:10;;;;;;;4.43;3.30;;;;;;;15.74;nan;-24255.91;5091602;28;20226;-66
2022/10/15 07:57:36;;;;;;;5.53;3.13;;;;;;;15.94;nan;-24261.50;5091572;28;20617;-66
2022/10/15 08:00:01;;;;;;;5.03;3.20;;;;;;;16.34;nan;-24272.69;5091396;28;20173;-65
2022/10/15 08:02:27;;;;;;;5.90;3.22;;;;;;;16.35;nan;-24272.81;5091459;28;20219;-67
2022/10/15 08:04:52;;;;;;;5.40;3.38;;;;;;;16.49;nan;-24276.72;5090506;28;20671;-68
2022/10/15 08:07:17;;;;;;;5.45;3.47;;;;;;;16.54;nan;-24278.13;5091673;28;20181;-69
2022/10/15 08:09:43;;;;;;;4.65;3.13;;;;;;;16.35;nan;-24272.81;5091062;28;20483;-68
2022/10/15 08:12:08;;;;;;;4.28;3.15;;;;;;;16.63;nan;-24280.66;5090800;28;20719;-69
2022/10/15 08:14:35;;;;;;;5.95;3.42;;;;;;;16.84;nan;-24286.38;5091430;28;20174;-70
2022/10/15 08:17:02;;;;;;;9.05;3.33;;;;;;;17.14;nan;-24294.75;5091843;28;20174;-68
2022/10/15 08:19:27;;;;;;;8.38;3.50;;;;;;;15.94;nan;-24261.50;5091626;28;20192;-68
2022/10/15 08:21:53;;;;;;;4.85;2.90;;;;;;;17.62;nan;-24307.88;5091659;28;20204;-65
2022/10/15 08:24:19;;;;;;;5.50;3.33;;;;;;;17.16;nan;-24295.31;5090795;28;20217;-67
2022/10/15 08:26:45;;;;;;;4.93;2.95;;;;;;;17.65;nan;-24308.84;5091175;28;20240;-65
2022/10/15 08:29:13;;;;;;;8.18;3.05;;;;;;;17.44;nan;-24303.00;5091085;28;20547;-66
2022/10/15 08:31:39;;;;;;;5.63;3.05;;;;;;;17.39;nan;-24301.59;5091542;28;20261;-67
2022/10/15 08:34:04;;;;;;;6.95;2.90;;;;;;;17.04;nan;-24291.81;5091446;28;20199;-68
2022/10/15 08:36:30;;;;;;;5.15;3.00;;;;;;;17.45;nan;-24303.28;5091174;28;20283;-68
2022/10/15 08:38:55;;;;;;;5.85;2.42;;;;;;;17.56;nan;-24306.34;5091191;28;20165;-69
2022/10/15 08:41:58;;;;;;;4.28;2.40;;;;;;;17.73;nan;-24310.81;5090685;28;20274;-68
2022/10/15 08:44:26;;;;;;;4.05;2.50;;;;;;;17.58;nan;-24306.91;4989179;28;20640;-69
2022/10/15 08:47:00;;;;;;;3.33;2.53;;;;;;;17.65;nan;-24308.84;5073258;28;20297;-70
2022/10/15 08:49:28;;;;;;;4.07;2.70;;;;;;;17.96;nan;-24317.22;5090758;28;20541;-68
2022/10/15 08:52:02;;;;;;;4.70;2.85;;;;;;;17.81;nan;-24313.03;5090913;28;20242;-69
2022/10/15 08:54:30;;;;;;;4.15;2.80;;;;;;;18.10;nan;-24321.13;5091297;28;20625;-68
2022/10/15 08:57:12;;;;;;;7.65;3.33;;;;;;;17.98;nan;-24317.91;5086856;28;20182;-67
2022/10/15 08:59:57;;;;;;;8.23;2.88;;;;;;;17.31;nan;-24299.22;5095685;28;20179;-66
2022/10/15 09:02:28;;;;;;;4.28;2.75;;;;;;;18.47;nan;-24331.44;5070682;28;20261;-68
2022/10/15 09:05:31;;;;;;;3.88;2.63;;;;;;;18.61;nan;-24335.06;5076443;28;20189;-69
2022/10/15 09:08:06;;;;;;;4.38;2.50;;;;;;;18.31;nan;-24326.97;5023116;28;20199;-67
2022/10/15 09:10:51;;;;;;;2.72;2.45;;;;;;;18.46;nan;-24331.00;5089489;28;20573;-68
2022/10/15 09:13:43;;;;;;;3.63;2.35;;;;;;;18.71;nan;-24338.00;5090334;28;20216;-68
2022/10/15 09:16:16;;;;;;;3.13;1.88;;;;;;;18.78;nan;-24339.78;5086464;28;20189;-68
2022/10/15 09:18:46;;;;;;;4.28;2.50;;;;;;;15.44;nan;-24247.63;5090781;28;20265;-67
2022/10/15 09:21:13;;;;;;;5.10;2.85;;;;;;;18.89;nan;-24342.84;5073273;28;20192;-68
2022/10/15 09:23:43;;;;;;;4.43;2.47;;;;;;;19.16;nan;-24350.22;5094265;28;20221;-69
2022/10/15 09:26:11;;;;;;;6.57;2.67;;;;;;;19.38;nan;-24356.34;5076176;28;20184;-67
2022/10/15 09:28:45;;;;;;;5.13;2.95;;;;;;;19.64;nan;-24363.44;5094793;28;20170;-66
2022/10/15 09:31:14;;;;;;;4.30;2.80;;;;;;;19.58;nan;-24361.78;5094262;28;20672;-66
2022/10/15 09:33:53;;;;;;;3.90;2.65;;;;;;;19.74;nan;-24366.22;5094190;28;20200;-68
2022/10/15 09:36:44;;;;;;;3.65;2.55;;;;;;;19.95;nan;-24372.06;5094510;28;20161;-70
2022/10/15 09:39:15;;;;;;;3.80;2.53;;;;;;;19.93;nan;-24371.38;5089579;28;20181;-70
2022/10/15 09:41:56;;;;;;;6.00;2.65;;;;;;;19.88;nan;-24369.97;5094268;28;20181;-68
2022/10/15 09:44:26;;;;;;;5.03;2.65;;;;;;;19.82;nan;-24368.59;5093963;28;20208;-69
2022/10/15 09:46:51;;;;;;;3.92;2.45;;;;;;;19.84;nan;-24369.00;5093940;28;20165;-69
2022/10/15 09:49:26;;;;;;;3.90;2.65;;;;;;;20.16;nan;-24377.75;5094197;28;20161;-68
2022/10/15 09:52:16;;;;;;;3.90;2.38;;;;;;;20.76;nan;-24394.28;5094131;28;20157;-69
2022/10/15 09:55:01;;;;;;;3.60;2.00;;;;;;;20.64;nan;-24390.97;5094225;28;20177;-71
2022/10/15 09:57:30;;;;;;;4.10;2.55;;;;;;;21.12;nan;-24404.28;5093882;28;20230;-68
2022/10/15 10:00:01;;;;;;;5.15;2.45;;;;;;;21.09;nan;-24403.44;5094166;28;20166;-72
2022/10/15 10:02:28;;;;;;;5.43;2.65;;;;;;;20.78;nan;-24394.84;5093622;28;20196;-71
2022/10/15 10:04:54;;;;;;;3.20;2.15;;;;;;;21.09;nan;-24403.31;5094079;28;20173;-69
2022/10/15 10:07:37;;;;;;;3.63;2.28;;;;;;;20.87;nan;-24397.34;5075560;28;20196;-69
2022/10/15 10:10:26;;;;;;;2.88;2.15;;;;;;;20.99;nan;-24400.53;5093561;28;20574;-69
2022/10/15 10:12:54;;;;;;;4.60;2.53;;;;;;;20.60;nan;-24389.97;5080971;28;20675;-70
2022/10/15 10:15:38;;;;;;;2.85;2.08;;;;;;;20.39;nan;-24384.16;5099277;28;20224;-70
2022/10/15 10:18:06;;;;;;;2.40;2.15;;;;;;;20.23;nan;-24379.72;5093815;28;20267;-69
2022/10/15 10:20:33;;;;;;;3.35;2.20;;;;;;;19.49;nan;-24359.41;5095050;28;20177;-67
2022/10/15 10:23:01;;;;;;;2.38;1.90;;;;;;;18.92;nan;-24343.69;5089190;28;20269;-68
2022/10/15 10:25:34;;;;;;;2.60;1.98;;;;;;;18.79;nan;-24340.22;5078183;28;20178;-70
2022/10/15 10:28:12;;;;;;;3.58;2.33;;;;;;;18.50;nan;-24332.28;5078880;28;20169;-69
2022/10/15 10:30:56;;;;;;;3.97;2.30;;;;;;;18.37;nan;-24328.50;5100662;28;20236;-68
2022/10/15 10:33:31;;;;;;;4.40;2.25;;;;;;;18.34;nan;-24327.69;5080509;28;20253;-71
2022/10/15 10:35:57;;;;;;;4.13;2.60;;;;;;;18.08;nan;-24320.72;5095571;28;20187;-70
2022/10/15 10:38:30;;;;;;;3.50;2.30;;;;;;;18.05;nan;-24319.72;5079861;28;20623;-70
2022/10/15 10:41:04;;;;;;;4.03;2.20;;;;;;;18.22;nan;-24324.34;5099750;28;20332;-71
2022/10/15 10:43:30;;;;;;;3.47;2.20;;;;;;;17.98;nan;-24317.91;5093326;28;20181;-71
2022/10/15 10:46:01;;;;;;;2.60;2.30;;;;;;;17.88;nan;-24315.00;5076731;28;20181;-68
2022/10/15 10:48:38;;;;;;;4.80;2.60;;;;;;;17.76;nan;-24311.78;5086041;28;20630;-71
2022/10/15 10:51:16;;;;;;;3.60;2.40;;;;;;;17.84;nan;-24313.88;5077243;28;20205;-68
2022/10/15 10:54:03;;;;;;;4.43;2.45;;;;;;;17.80;nan;-24312.75;5086528;28;20264;-70
2022/10/15 10:56:39;;;;;;;4.03;2.80;;;;;;;18.36;nan;-24328.38;5093052;28;20181;-69
2022/10/15 10:59:46;;;;;;;3.45;2.20;;;;;;;19.26;nan;-24353.16;5077183;28;20178;-71
2022/10/15 11:02:12;;;;;;;4.00;2.65;;;;;;;19.39;nan;-24356.78;5011726;28;20326;-69
2022/10/15 11:04:38;;;;;;;3.40;2.50;;;;;;;19.97;nan;-24372.50;5077614;28;20197;-69
2022/10/15 11:07:19;;;;;;;4.03;2.67;;;;;;;20.32;nan;-24382.22;5097260;28;20208;-73
2022/10/15 11:10:06;;;;;;;4.75;2.80;;;;;;;20.35;nan;-24383.03;5080717;28;20957;-71
2022/10/15 11:12:38;;;;;;;6.05;2.90;;;;;;;20.59;nan;-24389.56;5080761;28;20182;-74
2022/10/15 11:15:12;;;;;;;3.80;2.53;;;;;;;20.92;nan;-24398.72;5096842;28;20170;-68
2022/10/15 11:18:06;;;;;;;4.95;2.35;;;;;;;21.19;nan;-24405.94;5092048;28;20200;-67
2022/10/15 11:20:34;;;;;;;3.35;2.50;;;;;;;21.25;nan;-24407.59;5091048;28;20208;-69
2022/10/15 11:23:41;;;;;;;3.65;2.63;;;;;;;21.26;nan;-24407.88;5078124;28;20675;-69
2022/10/15 11:26:26;;;;;;;3.45;2.30;;;;;;;21.28;nan;-24408.56;5059061;28;20341;-70
2022/10/15 11:29:11;;;;;;;3.13;2.10;;;;;;;21.65;nan;-24418.56;5078854;28;20258;-70
2022/10/15 11:31:43;;;;;;;2.60;2.10;;;;;;;21.26;nan;-24408.03;5091359;28;20204;-68
2022/10/15 11:34:24;;;;;;;2.97;2.00;;;;;;;21.29;nan;-24408.84;5076600;28;20182;-70
2022/10/15 11:36:50;;;;;;;4.00;2.55;;;;;;;21.01;nan;-24401.22;5078676;28;20192;-68
2022/10/15 11:39:40;;;;;;;3.20;2.50;;;;;;;21.10;nan;-24403.72;5076428;28;20261;-68
2022/10/15 11:42:22;;;;;;;2.47;2.05;;;;;;;21.22;nan;-24406.78;5080140;28;20279;-67
2022/10/15 11:45:15;;;;;;;3.45;2.50;;;;;;;21.20;nan;-24406.22;5077704;28;20166;-69
2022/10/15 11:47:51;;;;;;;3.33;2.08;;;;;;;20.87;nan;-24397.34;5092086;28;20261;-71
2022/10/15 11:50:26;;;;;;;3.80;2.67;;;;;;;21.28;nan;-24408.44;5089066;28;20265;-70
2022/10/15 11:52:51;;;;;;;3.05;2.00;;;;;;;20.98;nan;-24400.38;5079185;28;20180;-69
2022/10/15 11:55:36;;;;;;;2.67;1.95;;;;;;;20.92;nan;-24398.72;5087614;28;20568;-69